Time;durP1;ratioP1;P1;durP2;ratioP2;P2;SDS_P1;SDS_P2;PMS_P1;PMS_P2;Temp;Humidity;BMP_temperature;BMP_pressure;BME280_temperature;BME280_humidity;BME280_pressure;Samples;Min_cycle;Max_cycle;Signal;HPM_P1;HPM_P2
2021/04/18 00:02:23;;;;;;;;;;;;;;;4.18;75.03;100480.23;1773537;80;20233;-76
2021/04/18 00:04:52;;;;;;;;;;;;;;;4.18;75.03;100485.45;1780455;80;20295;-76
2021/04/18 00:07:19;;;;;;;;;;;;;;;4.16;75.02;100482.08;1765903;79;20225;-75
2021/04/18 00:09:47;;;;;;;;;;;;;;;4.15;75.04;100480.36;1762239;81;21891;-76
2021/04/18 00:12:15;;;;;;;;;;;;;;;4.15;75.03;100475.13;1762018;81;20212;-76
2021/04/18 00:14:42;;;;;;;;;;;;;;;4.12;75.00;100468.30;1760392;81;20229;-76
2021/04/18 00:17:09;;;;;;;;;;;;;;;4.09;75.04;100470.23;1777440;80;20436;-76
2021/04/18 00:19:37;;;;;;;;;;;;;;;4.05;75.11;100473.91;1762376;81;20215;-76
2021/04/18 00:22:04;;;;;;;;;;;;;;;4.00;75.11;100467.16;1762342;81;22360;-75
2021/04/18 00:24:32;;;;;;;;;;;;;;;4.00;75.16;100468.47;1771783;80;20374;-75
2021/04/18 00:26:59;;;;;;;;;;;;;;;3.95;75.14;100463.92;1739321;80;21035;-76
2021/04/18 00:29:26;;;;;;;;;;;;;;;3.92;75.13;100464.55;1760986;81;21369;-75
2021/04/18 00:31:53;;;;;;;;;;;;;;;3.90;75.23;100462.02;1768564;80;20212;-75
2021/04/18 00:34:21;;;;;;;;;;;;;;;3.91;75.27;100466.32;1761278;80;21245;-77
2021/04/18 00:36:48;;;;;;;;;;;;;;;3.92;75.33;100458.86;1750973;81;20221;-77
2021/04/18 00:39:15;;;;;;;;;;;;;;;3.93;75.33;100459.70;1745630;82;20209;-77
2021/04/18 00:41:43;;;;;;;;;;;;;;;3.88;75.33;100461.72;1745417;82;21543;-77
2021/04/18 00:44:11;;;;;;;;;;;;;;;3.85;75.41;100464.47;1745385;82;20213;-78
2021/04/18 00:46:39;;;;;;;;;;;;;;;3.82;75.46;100469.86;1750336;81;21895;-78
2021/04/18 00:49:07;;;;;;;;;;;;;;;3.76;75.49;100468.38;1745785;81;20241;-77
2021/04/18 00:51:35;;;;;;;;;;;;;;;3.72;75.59;100470.77;1745712;82;20344;-77
2021/04/18 00:54:03;;;;;;;;;;;;;;;3.69;75.69;100471.78;1745560;81;20220;-77
2021/04/18 00:56:30;;;;;;;;;;;;;;;3.71;75.79;100476.92;1745478;81;21322;-76
2021/04/18 00:58:57;;;;;;;;;;;;;;;3.69;75.83;100473.55;1750234;81;22358;-77
2021/04/18 01:01:25;;;;;;;;;;;;;;;3.68;75.90;100472.70;1745108;82;20308;-78
2021/04/18 01:03:53;;;;;;;;;;;;;;;3.68;75.96;100474.47;1745753;82;20234;-78
2021/04/18 01:06:22;;;;;;;;;;;;;;;3.68;76.01;100473.16;1745711;82;20537;-78
2021/04/18 01:08:50;;;;;;;;;;;;;;;3.70;76.05;100475.23;1744456;81;20236;-77
2021/04/18 01:11:21;;;;;;;;;;;;;;;3.72;76.14;100472.08;1741985;81;20366;-79
2021/04/18 01:13:48;;;;;;;;;;;;;;;3.71;76.16;100467.78;1712795;82;21221;-79
2021/04/18 01:16:16;;;;;;;;;;;;;;;3.69;76.21;100470.47;1740378;80;20564;-78
2021/04/18 01:18:43;;;;;;;;;;;;;;;3.69;76.25;100476.16;1743384;82;20259;-79
2021/04/18 01:21:13;;;;;;;;;;;;;;;3.69;76.31;100470.47;1741465;81;20213;-79
2021/04/18 01:23:57;;;;;;;;;;;;;;;3.69;76.36;100471.78;1745035;80;21912;-75
2021/04/18 01:26:26;;;;;;;;;;;;;;;3.72;76.41;100466.86;1745667;80;20214;-76
2021/04/18 01:28:55;;;;;;;;;;;;;;;3.73;76.42;100462.86;1756169;80;20231;-76
2021/04/18 01:31:22;;;;;;;;;;;;;;;3.76;76.43;100455.78;1748681;80;21019;-76
2021/04/18 01:33:49;;;;;;;;;;;;;;;3.77;76.45;100454.89;1745871;82;20232;-76
2021/04/18 01:36:19;;;;;;;;;;;;;;;3.79;76.44;100456.50;1748007;81;22115;-75
2021/04/18 01:38:47;;;;;;;;;;;;;;;3.77;76.43;100453.13;1762944;80;20374;-77
2021/04/18 01:41:14;;;;;;;;;;;;;;;3.75;76.48;100451.02;1771273;80;20216;-76
2021/04/18 01:43:41;;;;;;;;;;;;;;;3.75;76.50;100451.02;1762271;81;20226;-76
2021/04/18 01:46:09;;;;;;;;;;;;;;;3.76;76.53;100450.09;1758929;80;20245;-79
2021/04/18 01:48:38;;;;;;;;;;;;;;;3.80;76.57;100448.20;1753021;81;23013;-80
2021/04/18 01:51:08;;;;;;;;;;;;;;;3.82;76.53;100448.49;1763024;80;20393;-77
2021/04/18 01:53:36;;;;;;;;;;;;;;;3.85;76.58;100443.56;1761565;81;20403;-76
2021/04/18 01:56:06;;;;;;;;;;;;;;;3.86;76.57;100443.52;1762380;80;20423;-76
2021/04/18 01:58:35;;;;;;;;;;;;;;;3.87;76.55;100441.74;1766793;80;20388;-79
2021/04/18 02:01:04;;;;;;;;;;;;;;;3.85;76.54;100440.48;1760921;81;23083;-77
2021/04/18 02:03:32;;;;;;;;;;;;;;;3.82;76.55;100435.89;1762369;81;20615;-76
2021/04/18 02:06:02;;;;;;;;;;;;;;;3.81;76.62;100436.81;1762392;81;20220;-77
2021/04/18 02:08:31;;;;;;;;;;;;;;;3.80;76.65;100429.45;1761672;80;20508;-77
2021/04/18 02:10:58;;;;;;;;;;;;;;;3.81;76.66;100431.13;1764427;81;20565;-77
2021/04/18 02:13:26;;;;;;;;;;;;;;;3.83;76.69;100431.89;1737244;81;22361;-77
2021/04/18 02:15:56;;;;;;;;;;;;;;;3.82;76.72;100423.67;1760350;81;20233;-77
2021/04/18 02:18:25;;;;;;;;;;;;;;;3.80;76.76;100424.68;1765775;80;20218;-78
2021/04/18 02:20:52;;;;;;;;;;;;;;;3.79;76.81;100427.75;1756548;80;20754;-77
2021/04/18 02:23:19;;;;;;;;;;;;;;;3.79;76.86;100422.53;1762976;80;20225;-77
2021/04/18 02:25:47;;;;;;;;;;;;;;;3.81;76.90;100418.53;1762356;81;21865;-77
2021/04/18 02:28:15;;;;;;;;;;;;;;;3.82;76.94;100414.53;1762127;81;20823;-77
2021/04/18 02:30:42;;;;;;;;;;;;;;;3.83;76.94;100413.59;1762375;81;20244;-77
2021/04/18 02:33:09;;;;;;;;;;;;;;;3.84;76.97;100411.37;1762293;81;20314;-76
2021/04/18 02:35:37;;;;;;;;;;;;;;;3.86;76.96;100414.77;1715318;83;20680;-77
2021/04/18 02:38:06;;;;;;;;;;;;;;;3.87;76.89;100416.92;1758408;81;20522;-75
2021/04/18 02:40:33;;;;;;;;;;;;;;;3.86;76.88;100417.81;1763761;81;20283;-78
2021/04/18 02:43:01;;;;;;;;;;;;;;;3.82;76.84;100424.98;1707526;83;20230;-79
2021/04/18 02:45:31;;;;;;;;;;;;;;;3.75;76.87;100422.28;1761321;80;20224;-80
2021/04/18 02:47:58;;;;;;;;;;;;;;;3.69;76.96;100428.68;1763740;80;20228;-78
2021/04/18 02:50:26;;;;;;;;;;;;;;;3.63;76.97;100427.67;1734815;81;22338;-75
2021/04/18 02:52:53;;;;;;;;;;;;;;;3.60;77.04;100425.69;1763460;81;20224;-77
2021/04/18 02:55:20;;;;;;;;;;;;;;;3.58;77.07;100421.00;1763438;80;20276;-77
2021/04/18 02:57:56;;;;;;;;;;;;;;;3.55;77.16;100425.89;1734256;81;20308;-75
2021/04/18 03:00:23;;;;;;;;;;;;;;;3.51;77.23;100436.58;1722961;81;20280;-74
2021/04/18 03:02:51;;;;;;;;;;;;;;;3.48;77.28;100438.05;1762033;81;22067;-74
2021/04/18 03:05:19;;;;;;;;;;;;;;;3.47;77.38;100433.72;1763272;81;20619;-76
2021/04/18 03:07:48;;;;;;;;;;;;;;;3.45;77.42;100437.25;1762435;80;20292;-75
2021/04/18 03:10:17;;;;;;;;;;;;;;;3.44;77.49;100442.09;1763602;81;20228;-75
2021/04/18 03:12:44;;;;;;;;;;;;;;;3.47;77.54;100435.87;1763570;80;20392;-76
2021/04/18 03:15:14;;;;;;;;;;;;;;;3.51;77.54;100437.89;1768962;80;22126;-76
2021/04/18 03:17:43;;;;;;;;;;;;;;;3.52;77.54;100444.34;1763303;80;20372;-76
2021/04/18 03:20:13;;;;;;;;;;;;;;;3.54;77.58;100442.95;1761963;80;20411;-75
2021/04/18 03:22:40;;;;;;;;;;;;;;;3.56;77.63;100449.78;1763492;81;20254;-75
2021/04/18 03:25:10;;;;;;;;;;;;;;;3.59;77.69;100448.34;1763732;81;20272;-75
2021/04/18 03:27:38;;;;;;;;;;;;;;;3.60;77.71;100442.66;1776795;80;22969;-74
2021/04/18 03:30:09;;;;;;;;;;;;;;;3.60;77.73;100447.42;1744921;80;20268;-74
2021/04/18 03:32:38;;;;;;;;;;;;;;;3.63;77.78;100440.73;1764153;80;20244;-74
2021/04/18 03:35:07;;;;;;;;;;;;;;;3.65;77.83;100441.48;1755597;81;20318;-75
2021/04/18 03:37:34;;;;;;;;;;;;;;;3.68;77.88;100440.05;1766157;80;20216;-76
2021/04/18 03:40:03;;;;;;;;;;;;;;;3.73;77.88;100441.11;1763648;81;23239;-75
2021/04/18 03:42:30;;;;;;;;;;;;;;;3.74;77.90;100437.58;1763888;81;21254;-75
2021/04/18 03:45:00;;;;;;;;;;;;;;;3.76;77.95;100437.03;1765857;80;20228;-75
2021/04/18 03:47:28;;;;;;;;;;;;;;;3.80;77.98;100435.13;1764139;80;20241;-74
2021/04/18 03:49:57;;;;;;;;;;;;;;;3.84;78.02;100434.88;1762629;80;20247;-75
2021/04/18 03:52:27;;;;;;;;;;;;;;;3.88;78.01;100431.67;1770547;80;22918;-75
2021/04/18 03:54:54;;;;;;;;;;;;;;;3.91;78.00;100434.96;1763451;81;20225;-75
2021/04/18 03:57:22;;;;;;;;;;;;;;;3.93;77.99;100430.50;1763161;81;20407;-75
2021/04/18 03:59:50;;;;;;;;;;;;;;;3.94;77.99;100424.34;1765776;80;20318;-75
2021/04/18 04:02:18;;;;;;;;;;;;;;;3.98;78.03;100419.36;1768861;80;20500;-76
2021/04/18 04:04:47;;;;;;;;;;;;;;;4.02;78.07;100422.19;1763523;80;22069;-76
2021/04/18 04:07:17;;;;;;;;;;;;;;;4.08;78.08;100422.81;1763439;81;20670;-74
2021/04/18 04:09:44;;;;;;;;;;;;;;;4.10;78.05;100418.34;1763541;80;20225;-74
2021/04/18 04:12:13;;;;;;;;;;;;;;;4.11;78.09;100416.11;1774718;80;20492;-76
2021/04/18 04:14:43;;;;;;;;;;;;;;;4.15;78.12;100416.31;1771067;80;20264;-76
2021/04/18 04:17:10;;;;;;;;;;;;;;;4.20;78.15;100414.32;1715491;83;22496;-76
2021/04/18 04:19:43;;;;;;;;;;;;;;;4.23;78.16;100415.00;1734803;81;20771;-77
2021/04/18 04:22:28;;;;;;;;;;;;;;;4.29;78.16;100420.37;1760182;80;20285;-78
2021/04/18 04:25:11;;;;;;;;;;;;;;;4.34;78.12;100416.20;1765742;80;20397;-78
2021/04/18 04:27:39;;;;;;;;;;;;;;;4.37;78.08;100406.44;1763941;80;20208;-76
2021/04/18 04:30:06;;;;;;;;;;;;;;;4.41;78.04;100401.88;1763820;81;22970;-78
2021/04/18 04:32:33;;;;;;;;;;;;;;;4.44;77.98;100399.09;1765292;80;20431;-78
2021/04/18 04:35:01;;;;;;;;;;;;;;;4.47;77.96;100401.09;1782349;80;20229;-78
2021/04/18 04:37:28;;;;;;;;;;;;;;;4.48;77.94;100389.70;1755574;80;20523;-78
2021/04/18 04:39:55;;;;;;;;;;;;;;;4.51;77.96;100392.61;1738751;81;20224;-76
2021/04/18 04:42:22;;;;;;;;;;;;;;;4.52;77.96;100387.29;1702917;83;22866;-77
2021/04/18 04:44:50;;;;;;;;;;;;;;;4.55;77.94;100385.00;1749710;81;20224;-75
2021/04/18 04:47:17;;;;;;;;;;;;;;;4.60;77.96;100384.27;1712594;81;20215;-76
2021/04/18 04:49:44;;;;;;;;;;;;;;;4.65;78.01;100377.02;1728380;81;20255;-76
2021/04/18 04:52:11;;;;;;;;;;;;;;;4.73;78.08;100384.42;1728388;83;20234;-75
2021/04/18 04:54:39;;;;;;;;;;;;;;;4.79;78.08;100389.33;1695452;83;21903;-75
2021/04/18 04:57:06;;;;;;;;;;;;;;;4.87;78.11;100385.37;1703079;81;20297;-75
2021/04/18 04:59:35;;;;;;;;;;;;;;;4.97;78.12;100381.77;1726462;81;20247;-75
2021/04/18 05:02:03;;;;;;;;;;;;;;;5.08;78.11;100374.16;1746233;81;20395;-78
2021/04/18 05:04:33;;;;;;;;;;;;;;;5.20;78.10;100383.08;1728473;82;20219;-78
2021/04/18 05:07:00;;;;;;;;;;;;;;;5.29;78.07;100377.78;1670720;86;21843;-75
2021/04/18 05:09:28;;;;;;;;;;;;;;;5.39;78.11;100378.94;1683731;84;20670;-76
2021/04/18 05:11:57;;;;;;;;;;;;;;;5.51;78.10;100379.56;1700883;83;20220;-76
2021/04/18 05:14:25;;;;;;;;;;;;;;;5.63;78.00;100382.77;1708572;82;20873;-75
2021/04/18 05:16:52;;;;;;;;;;;;;;;5.72;77.92;100382.70;1720049;82;20243;-76
2021/04/18 05:19:20;;;;;;;;;;;;;;;5.81;77.92;100378.69;1727568;81;21847;-75
2021/04/18 05:21:48;;;;;;;;;;;;;;;5.92;78.04;100377.61;1727398;82;20516;-75
2021/04/18 05:24:15;;;;;;;;;;;;;;;6.03;78.03;100376.48;1726046;83;20218;-74
2021/04/18 05:26:43;;;;;;;;;;;;;;;6.11;78.00;100372.94;1723730;83;20489;-74
2021/04/18 05:29:10;;;;;;;;;;;;;;;6.20;77.99;100375.00;1703477;83;20522;-75
2021/04/18 05:31:39;;;;;;;;;;;;;;;6.28;78.02;100370.60;1756637;81;20317;-74
2021/04/18 05:34:06;;;;;;;;;;;;;;;6.40;78.08;100379.48;1696262;82;21037;-75
2021/04/18 05:36:35;;;;;;;;;;;;;;;6.51;78.01;100383.59;1726390;82;20220;-77
2021/04/18 05:39:07;;;;;;;;;;;;;;;6.58;77.84;100373.94;1719236;82;20931;-74
2021/04/18 05:41:33;;;;;;;;;;;;;;;6.67;77.61;100375.61;1750078;81;20232;-77
2021/04/18 05:44:00;;;;;;;;;;;;;;;6.75;77.54;100376.78;1763717;80;22026;-75
2021/04/18 05:46:28;;;;;;;;;;;;;;;6.86;77.53;100376.97;1715626;80;20218;-77
2021/04/18 05:48:56;;;;;;;;;;;;;;;7.00;77.49;100383.11;1761825;80;20217;-76
2021/04/18 05:51:24;;;;;;;;;;;;;;;7.14;77.44;100389.17;1765598;80;20315;-82
2021/04/18 05:53:53;;;;;;;;;;;;;;;7.28;77.17;100390.89;1763469;81;20212;-79
2021/04/18 05:56:20;;;;;;;;;;;;;;;7.38;76.97;100384.08;1763116;80;22806;-77
2021/04/18 05:58:48;;;;;;;;;;;;;;;7.53;76.83;100386.63;1770481;80;20795;-81
2021/04/18 06:01:17;;;;;;;;;;;;;;;7.70;76.76;100387.19;1769064;80;20227;-80
2021/04/18 06:03:45;;;;;;;;;;;;;;;7.86;76.52;100380.91;1738996;81;20832;-76
2021/04/18 06:06:14;;;;;;;;;;;;;;;7.99;76.36;100379.95;1763752;80;20507;-77
2021/04/18 06:08:41;;;;;;;;;;;;;;;8.12;76.06;100377.81;1761439;80;22316;-77
2021/04/18 06:11:09;;;;;;;;;;;;;;;8.23;76.05;100380.53;1764644;80;21310;-76
2021/04/18 06:13:37;;;;;;;;;;;;;;;8.35;75.60;100380.18;1763632;80;20221;-81
2021/04/18 06:16:06;;;;;;;;;;;;;;;8.46;74.25;100377.16;1763455;80;21353;-77
2021/04/18 06:18:34;;;;;;;;;;;;;;;8.52;72.80;100375.89;1764557;80;20232;-76
2021/04/18 06:21:01;;;;;;;;;;;;;;;8.47;71.38;100370.94;1763712;81;22605;-78
2021/04/18 06:23:28;;;;;;;;;;;;;;;8.40;71.01;100371.03;1763395;81;21002;-77
2021/04/18 06:25:55;;;;;;;;;;;;;;;8.31;70.29;100363.27;1762120;80;20209;-76
2021/04/18 06:28:22;;;;;;;;;;;;;;;8.29;70.48;100365.14;1759133;80;21406;-78
2021/04/18 06:30:50;;;;;;;;;;;;;;;8.34;70.42;100355.63;1755382;80;20260;-79
2021/04/18 06:33:17;;;;;;;;;;;;;;;8.40;70.34;100360.98;1755414;80;21246;-81
2021/04/18 06:35:45;;;;;;;;;;;;;;;8.50;70.49;100371.22;1763129;80;20465;-78
2021/04/18 06:38:12;;;;;;;;;;;;;;;8.62;70.05;100368.19;1762779;80;20279;-78
2021/04/18 06:40:40;;;;;;;;;;;;;;;8.67;69.62;100366.05;1770118;80;20318;-78
2021/04/18 06:43:09;;;;;;;;;;;;;;;8.71;69.36;100369.69;1759813;79;20295;-76
2021/04/18 06:45:37;;;;;;;;;;;;;;;8.82;69.27;100376.33;1766219;80;21953;-80
2021/04/18 06:48:05;;;;;;;;;;;;;;;8.95;68.81;100368.38;1736538;81;20215;-83
2021/04/18 06:50:32;;;;;;;;;;;;;;;9.09;68.68;100366.06;1759235;81;20241;-78
2021/04/18 06:53:00;;;;;;;;;;;;;;;9.23;68.54;100371.63;1763827;81;20354;-83
2021/04/18 06:55:27;;;;;;;;;;;;;;;9.42;67.83;100373.27;1763673;80;20237;-81
2021/04/18 06:57:54;;;;;;;;;;;;;;;9.59;67.37;100361.46;1764498;80;22055;-82
2021/04/18 07:00:22;;;;;;;;;;;;;;;9.73;67.25;100359.92;1762108;80;21119;-78
2021/04/18 07:02:50;;;;;;;;;;;;;;;9.79;65.91;100358.14;1730908;81;20251;-77
2021/04/18 07:05:19;;;;;;;;;;;;;;;9.75;64.73;100357.55;1766542;80;20477;-77
2021/04/18 07:07:47;;;;;;;;;;;;;;;9.71;64.50;100367.12;1767798;80;20216;-78
2021/04/18 07:10:28;;;;;;;;;;;;;;;9.62;64.21;100360.73;1763838;81;21829;-78
2021/04/18 07:12:58;;;;;;;;;;;;;;;9.65;65.08;100361.84;1761627;80;20375;-79
2021/04/18 07:15:38;;;;;;;;;;;;;;;9.84;65.14;100352.02;1739600;80;20252;-76
2021/04/18 07:18:08;;;;;;;;;;;;;;;10.01;64.22;100358.17;1771263;80;20473;-77
2021/04/18 07:20:52;;;;;;;;;;;;;;;10.15;63.51;100362.39;1762533;81;20213;-78
2021/04/18 07:23:29;;;;;;;;;;;;;;;10.17;62.84;100355.19;1752878;81;21891;-78
2021/04/18 07:25:57;;;;;;;;;;;;;;;10.12;62.77;100356.02;1756112;80;20245;-74
2021/04/18 07:28:28;;;;;;;;;;;;;;;10.10;61.84;100354.46;1776435;80;20295;-77
2021/04/18 07:31:00;;;;;;;;;;;;;;;10.17;61.90;100362.27;1766762;80;20741;-76
2021/04/18 07:33:25;;;;;;;;;;;;;;;10.23;61.48;100355.20;1734309;80;20213;-75
2021/04/18 07:35:53;;;;;;;;;;;;;;;10.21;61.23;100336.83;1766568;80;22505;-76
2021/04/18 07:38:27;;;;;;;;;;;;;;;10.19;61.42;100361.19;1761102;79;20283;-74
2021/04/18 07:40:56;;;;;;;;;;;;;;;10.12;61.65;100357.34;1752562;80;20245;-76
2021/04/18 07:43:24;;;;;;;;;;;;;;;9.99;61.84;100358.77;1759592;80;21743;-78
2021/04/18 07:45:51;;;;;;;;;;;;;;;9.89;61.49;100354.33;1751181;80;20212;-81
2021/04/18 07:48:19;;;;;;;;;;;;;;;9.85;61.76;100351.09;1739585;82;22751;-78
2021/04/18 07:50:48;;;;;;;;;;;;;;;9.97;61.81;100347.98;1760771;81;20220;-78
2021/04/18 07:53:17;;;;;;;;;;;;;;;10.17;61.62;100342.48;1743075;81;20650;-74
2021/04/18 07:55:45;;;;;;;;;;;;;;;10.38;61.85;100334.70;1762440;80;20562;-79
2021/04/18 07:58:12;;;;;;;;;;;;;;;10.50;60.83;100337.67;1744179;80;20275;-78
2021/04/18 08:00:39;;;;;;;;;;;;;;;10.43;60.55;100341.30;1735438;80;21898;-79
2021/04/18 08:03:07;;;;;;;;;;;;;;;10.28;60.71;100340.70;1753489;80;20277;-89
2021/04/18 08:05:35;;;;;;;;;;;;;;;10.26;61.09;100345.27;1765557;80;20281;-79
2021/04/18 08:08:15;;;;;;;;;;;;;;;10.34;60.54;100327.52;1744709;81;20995;-82
2021/04/18 08:10:46;;;;;;;;;;;;;;;10.45;58.74;100330.62;1729946;81;20288;-87
2021/04/18 08:13:23;;;;;;;;;;;;;;;10.59;58.21;100329.02;1773466;80;21932;-82
2021/04/18 08:16:02;;;;;;;;;;;;;;;10.72;58.51;100319.16;1766089;80;21227;-83
2021/04/18 08:18:42;;;;;;;;;;;;;;;10.73;58.22;100318.20;1771375;80;20422;-83
2021/04/18 08:21:36;;;;;;;;;;;;;;;10.74;58.55;100323.84;1751122;80;20292;-83
2021/04/18 08:24:08;;;;;;;;;;;;;;;10.76;57.06;100321.91;1746392;80;20298;-85
2021/04/18 08:26:36;;;;;;;;;;;;;;;10.80;56.39;100315.39;1727195;82;22497;-86
2021/04/18 08:29:07;;;;;;;;;;;;;;;10.91;55.86;100313.23;1763680;81;21171;-84
2021/04/18 08:31:52;;;;;;;;;;;;;;;11.00;55.68;100303.67;1762487;79;20249;-89
2021/04/18 08:34:32;;;;;;;;;;;;;;;11.07;56.15;100300.41;1727770;82;38377;-88
2021/04/18 08:37:01;;;;;;;;;;;;;;;11.15;56.46;100293.17;1756899;80;20454;-84
2021/04/18 08:39:35;;;;;;;;;;;;;;;11.06;56.10;100296.09;1761796;80;22386;-83
2021/04/18 08:42:05;;;;;;;;;;;;;;;10.92;56.07;100291.12;1725438;80;20522;-82
2021/04/18 08:44:39;;;;;;;;;;;;;;;10.88;57.10;100282.58;1764379;80;20283;-80
2021/04/18 08:47:14;;;;;;;;;;;;;;;11.02;57.81;100279.31;1759256;80;20398;-86
2021/04/18 08:49:50;;;;;;;;;;;;;;;11.25;57.18;100280.86;1758674;80;20273;-81
2021/04/18 08:52:23;;;;;;;;;;;;;;;11.47;57.19;100272.79;1757127;80;21906;-79
2021/04/18 08:54:51;;;;;;;;;;;;;;;11.65;55.50;100269.55;1759428;81;20327;-84
2021/04/18 08:57:24;;;;;;;;;;;;;;;11.73;55.72;100263.13;1758894;81;20401;-80
2021/04/18 08:59:56;;;;;;;;;;;;;;;11.85;56.63;100263.42;1759016;81;20310;-80
2021/04/18 09:02:25;;;;;;;;;;;;;;;11.98;56.30;100261.41;1759713;80;20499;-79
2021/04/18 09:04:55;;;;;;;;;;;;;;;12.03;55.59;100264.47;1771325;80;21880;-78
2021/04/18 09:07:26;;;;;;;;;;;;;;;12.06;55.70;100255.91;1760386;80;21240;-79
2021/04/18 09:09:59;;;;;;;;;;;;;;;12.06;55.36;100273.94;1763766;80;20292;-76
2021/04/18 09:12:26;;;;;;;;;;;;;;;12.02;55.45;100254.02;1757593;80;20460;-82
2021/04/18 09:14:53;;;;;;;;;;;;;;;12.02;54.39;100254.02;1757976;81;20284;-80
2021/04/18 09:17:29;;;;;;;;;;;;;;;12.06;53.96;100251.93;1767355;80;20400;-83
2021/04/18 09:20:08;;;;;;;;;;;;;;;12.05;51.82;100261.69;1764565;80;20267;-79
2021/04/18 09:22:38;;;;;;;;;;;;;;;11.88;51.92;100253.91;1772654;80;20292;-77
2021/04/18 09:25:09;;;;;;;;;;;;;;;11.85;51.80;100252.83;1768115;80;20464;-79
2021/04/18 09:27:39;;;;;;;;;;;;;;;12.00;49.27;100254.64;1776814;80;20311;-77
2021/04/18 09:30:16;;;;;;;;;;;;;;;12.08;51.22;100246.04;1761949;80;21893;-79
2021/04/18 09:32:52;;;;;;;;;;;;;;;12.10;51.63;100253.36;1888192;75;20171;-79
2021/04/18 09:35:24;;;;;;;;;;;;;;;11.96;52.18;100243.47;1835700;77;20244;-78
2021/04/18 09:38:01;;;;;;;;;;;;;;;11.88;52.23;100243.33;1822182;77;22058;-78
2021/04/18 09:40:33;;;;;;;;;;;;;;;11.82;53.40;100239.04;1797820;78;20371;-79
2021/04/18 09:43:05;;;;;;;;;;;;;;;11.80;53.45;100234.38;1829854;78;20748;-79
2021/04/18 09:45:32;;;;;;;;;;;;;;;11.80;53.03;100238.34;1833909;77;20207;-79
2021/04/18 09:48:20;;;;;;;;;;;;;;;11.82;53.30;100226.64;1799617;79;20494;-78
2021/04/18 09:51:00;;;;;;;;;;;;;;;11.87;53.25;100231.06;1819127;79;21897;-77
2021/04/18 09:53:29;;;;;;;;;;;;;;;11.97;52.80;100224.00;1818826;79;20216;-77
2021/04/18 09:56:07;;;;;;;;;;;;;;;12.06;52.48;100225.45;1811467;77;20226;-77
2021/04/18 09:58:38;;;;;;;;;;;;;;;12.19;52.03;100233.53;1787878;79;20209;-77
2021/04/18 10:01:26;;;;;;;;;;;;;;;12.22;51.19;100228.44;1819314;79;20220;-82
2021/04/18 10:03:53;;;;;;;;;;;;;;;12.15;51.36;100221.52;1819803;79;21927;-79
2021/04/18 10:06:23;;;;;;;;;;;;;;;12.11;50.37;100219.29;1818525;79;20411;-79
2021/04/18 10:09:04;;;;;;;;;;;;;;;12.08;49.76;100224.38;1790920;79;20197;-78
2021/04/18 10:11:31;;;;;;;;;;;;;;;12.07;50.53;100238.59;1819117;79;20586;-79
2021/04/18 10:13:59;;;;;;;;;;;;;;;12.09;50.63;100227.37;1819043;78;20229;-78
2021/04/18 10:16:42;;;;;;;;;;;;;;;12.19;51.47;100223.42;1818047;78;22057;-78
2021/04/18 10:19:16;;;;;;;;;;;;;;;12.37;51.73;100221.79;1816305;78;20367;-77
2021/04/18 10:22:08;;;;;;;;;;;;;;;12.79;51.79;100227.67;1815838;79;20490;-78
2021/04/18 10:24:38;;;;;;;;;;;;;;;13.24;49.16;100217.84;1786963;80;20222;-77
2021/04/18 10:27:07;;;;;;;;;;;;;;;13.46;46.81;100215.33;1799918;79;20209;-76
2021/04/18 10:29:35;;;;;;;;;;;;;;;13.42;45.46;100209.48;1819167;79;21196;-79
2021/04/18 10:32:03;;;;;;;;;;;;;;;13.32;46.62;100213.98;1809756;78;20354;-78
2021/04/18 10:34:31;;;;;;;;;;;;;;;13.20;47.05;100219.57;1782155;80;20214;-76
2021/04/18 10:36:58;;;;;;;;;;;;;;;13.08;45.83;100211.75;1763889;80;20215;-77
2021/04/18 10:39:27;;;;;;;;;;;;;;;13.02;46.75;100233.52;1773253;80;20232;-76
2021/04/18 10:41:55;;;;;;;;;;;;;;;12.97;44.89;100219.86;1789791;80;22776;-77
2021/04/18 10:44:22;;;;;;;;;;;;;;;12.89;46.30;100219.23;1789067;80;20253;-77
2021/04/18 10:46:54;;;;;;;;;;;;;;;12.90;47.15;100225.36;1766930;80;20232;-78
2021/04/18 10:49:22;;;;;;;;;;;;;;;12.88;46.97;100220.70;1788803;80;20253;-78
2021/04/18 10:51:49;;;;;;;;;;;;;;;12.82;47.41;100232.69;1789087;80;20225;-77
2021/04/18 10:54:17;;;;;;;;;;;;;;;12.74;47.63;100226.41;1789132;80;22049;-76
2021/04/18 10:56:45;;;;;;;;;;;;;;;12.74;48.38;100229.92;1787859;79;21078;-78
2021/04/18 10:59:13;;;;;;;;;;;;;;;12.80;47.25;100228.51;1789186;80;20556;-75
2021/04/18 11:01:41;;;;;;;;;;;;;;;12.84;46.96;100227.27;1789058;80;20229;-75
2021/04/18 11:04:08;;;;;;;;;;;;;;;12.86;46.65;100226.14;1789210;79;20237;-76
2021/04/18 11:06:36;;;;;;;;;;;;;;;12.88;45.58;100222.02;1789504;80;22039;-79
2021/04/18 11:09:04;;;;;;;;;;;;;;;12.94;45.14;100222.80;1769909;80;21058;-79
2021/04/18 11:11:32;;;;;;;;;;;;;;;13.03;45.41;100225.09;1776304;80;20229;-78
2021/04/18 11:14:00;;;;;;;;;;;;;;;13.14;46.01;100215.66;1772524;79;20234;-78
2021/04/18 11:16:27;;;;;;;;;;;;;;;13.25;45.81;100219.50;1757988;80;20216;-78
2021/04/18 11:18:55;;;;;;;;;;;;;;;13.28;45.90;100208.59;1757948;80;23035;-77
2021/04/18 11:21:23;;;;;;;;;;;;;;;13.36;45.85;100208.72;1757927;80;20260;-78
2021/04/18 11:23:52;;;;;;;;;;;;;;;13.49;45.91;100219.02;1773125;80;20250;-78
2021/04/18 11:26:19;;;;;;;;;;;;;;;13.66;45.49;100214.28;1787909;80;21144;-80
2021/04/18 11:28:47;;;;;;;;;;;;;;;13.74;45.77;100217.05;1786539;79;20261;-78
2021/04/18 11:31:15;;;;;;;;;;;;;;;13.77;45.38;100206.63;1767659;80;22834;-77
2021/04/18 11:33:43;;;;;;;;;;;;;;;13.88;45.95;100212.23;1752025;81;20638;-84
2021/04/18 11:36:12;;;;;;;;;;;;;;;14.02;45.75;100211.76;1759599;81;20213;-79
2021/04/18 11:38:39;;;;;;;;;;;;;;;14.12;45.59;100215.69;1758878;81;20247;-79
2021/04/18 11:41:07;;;;;;;;;;;;;;;14.14;44.48;100199.94;1737041;81;20439;-75
2021/04/18 11:43:35;;;;;;;;;;;;;;;14.07;44.27;100216.11;1733645;82;21891;-77
2021/04/18 11:46:04;;;;;;;;;;;;;;;13.98;44.94;100207.21;1769700;80;20335;-77
2021/04/18 11:48:31;;;;;;;;;;;;;;;13.91;45.14;100221.25;1761924;80;20209;-79
2021/04/18 11:50:59;;;;;;;;;;;;;;;13.82;45.82;100211.51;1774437;80;20535;-77
2021/04/18 11:53:26;;;;;;;;;;;;;;;13.84;45.57;100209.53;1730434;83;20208;-80
2021/04/18 11:55:53;;;;;;;;;;;;;;;13.73;44.62;100218.03;1748019;82;22610;-75
2021/04/18 11:58:20;;;;;;;;;;;;;;;13.58;45.54;100214.66;1758043;80;20631;-80
2021/04/18 12:00:47;;;;;;;;;;;;;;;13.47;45.74;100214.34;1729102;82;20489;-81
2021/04/18 12:03:17;;;;;;;;;;;;;;;13.38;45.22;100216.05;1735117;82;20243;-81
2021/04/18 12:05:44;;;;;;;;;;;;;;;13.27;44.91;100208.26;1770411;80;20236;-79
2021/04/18 12:08:16;;;;;;;;;;;;;;;13.19;45.23;100208.12;1761657;79;22120;-78
2021/04/18 12:10:43;;;;;;;;;;;;;;;13.09;45.63;100207.28;1754880;81;20322;-76
2021/04/18 12:13:11;;;;;;;;;;;;;;;13.01;46.17;100214.61;1762186;79;20264;-79
2021/04/18 12:15:38;;;;;;;;;;;;;;;12.95;46.10;100211.22;1760270;81;20506;-78
2021/04/18 12:18:06;;;;;;;;;;;;;;;12.88;45.90;100219.38;1751934;81;20280;-79
2021/04/18 12:20:34;;;;;;;;;;;;;;;12.77;45.98;100211.08;1743552;81;21973;-79
2021/04/18 12:23:01;;;;;;;;;;;;;;;12.68;46.56;100213.73;1754979;81;20555;-78
2021/04/18 12:25:28;;;;;;;;;;;;;;;12.61;46.71;100210.30;1782233;80;20285;-75
2021/04/18 12:27:56;;;;;;;;;;;;;;;12.54;47.29;100212.31;1751623;80;20251;-74
2021/04/18 12:30:23;;;;;;;;;;;;;;;12.46;47.76;100206.40;1752749;80;20608;-73
2021/04/18 12:32:51;;;;;;;;;;;;;;;12.33;48.20;100207.97;1782538;80;22757;-74
2021/04/18 12:35:18;;;;;;;;;;;;;;;12.28;48.80;100208.88;1779932;80;20245;-74
2021/04/18 12:37:46;;;;;;;;;;;;;;;12.20;49.26;100207.39;1754703;80;20523;-76
2021/04/18 12:40:14;;;;;;;;;;;;;;;12.17;49.57;100212.97;1756151;80;20314;-74
2021/04/18 12:42:41;;;;;;;;;;;;;;;12.16;49.87;100213.08;1782640;80;20230;-74
2021/04/18 12:45:09;;;;;;;;;;;;;;;12.11;50.38;100217.96;1782657;80;22901;-74
2021/04/18 12:47:38;;;;;;;;;;;;;;;12.02;51.06;100214.31;1777021;80;20224;-76
2021/04/18 12:50:06;;;;;;;;;;;;;;;11.92;51.77;100216.93;1751806;81;20439;-76
2021/04/18 12:52:34;;;;;;;;;;;;;;;11.83;52.35;100213.77;1726377;82;20268;-72
2021/04/18 12:55:01;;;;;;;;;;;;;;;11.77;52.93;100214.25;1751779;80;20255;-72